sensor_id;sensor_type;location;lat;lon;timestamp;P1;durP1;ratioP1;P2;durP2;ratioP2
2299;SDS011;1158;48.750;9.078;2023-11-19T00:00:45;6.43;;;3.53;;
2299;SDS011;1158;48.750;9.078;2023-11-19T00:03:12;3.80;;;2.83;;
2299;SDS011;1158;48.750;9.078;2023-11-19T00:05:40;5.10;;;3.53;;
2299;SDS011;1158;48.750;9.078;2023-11-19T00:08:07;7.77;;;3.33;;
2299;SDS011;1158;48.750;9.078;2023-11-19T00:10:34;4.53;;;2.73;;
2299;SDS011;1158;48.750;9.078;2023-11-19T00:13:01;4.93;;;2.80;;
2299;SDS011;1158;48.750;9.078;2023-11-19T00:15:29;3.53;;;2.30;;
2299;SDS011;1158;48.750;9.078;2023-11-19T00:17:56;5.20;;;3.10;;
2299;SDS011;1158;48.750;9.078;2023-11-19T00:20:22;3.97;;;2.80;;
2299;SDS011;1158;48.750;9.078;2023-11-19T00:22:50;4.37;;;2.53;;
2299;SDS011;1158;48.750;9.078;2023-11-19T00:25:17;5.83;;;2.53;;
2299;SDS011;1158;48.750;9.078;2023-11-19T00:27:44;4.40;;;2.80;;
2299;SDS011;1158;48.750;9.078;2023-11-19T00:30:11;7.07;;;3.53;;
2299;SDS011;1158;48.750;9.078;2023-11-19T00:32:39;4.53;;;2.70;;
2299;SDS011;1158;48.750;9.078;2023-11-19T00:35:06;4.70;;;2.37;;
2299;SDS011;1158;48.750;9.078;2023-11-19T00:37:35;9.73;;;2.50;;
2299;SDS011;1158;48.750;9.078;2023-11-19T00:40:03;5.63;;;3.17;;
2299;SDS011;1158;48.750;9.078;2023-11-19T00:42:31;4.37;;;2.30;;
2299;SDS011;1158;48.750;9.078;2023-11-19T00:44:58;3.27;;;2.30;;
2299;SDS011;1158;48.750;9.078;2023-11-19T00:47:26;4.20;;;2.53;;
2299;SDS011;1158;48.750;9.078;2023-11-19T00:49:53;4.90;;;2.27;;
2299;SDS011;1158;48.750;9.078;2023-11-19T00:52:20;5.23;;;2.40;;
2299;SDS011;1158;48.750;9.078;2023-11-19T00:54:47;4.60;;;2.40;;
2299;SDS011;1158;48.750;9.078;2023-11-19T00:57:15;3.27;;;1.70;;
2299;SDS011;1158;48.750;9.078;2023-11-19T00:59:41;2.90;;;1.97;;
2299;SDS011;1158;48.750;9.078;2023-11-19T01:02:08;3.60;;;1.70;;
2299;SDS011;1158;48.750;9.078;2023-11-19T01:04:35;4.50;;;2.10;;
2299;SDS011;1158;48.750;9.078;2023-11-19T01:07:03;2.97;;;1.80;;
2299;SDS011;1158;48.750;9.078;2023-11-19T01:09:30;2.57;;;1.53;;
2299;SDS011;1158;48.750;9.078;2023-11-19T01:11:59;1.97;;;1.30;;
2299;SDS011;1158;48.750;9.078;2023-11-19T01:14:27;2.97;;;1.60;;
2299;SDS011;1158;48.750;9.078;2023-11-19T01:16:54;2.63;;;1.50;;
2299;SDS011;1158;48.750;9.078;2023-11-19T01:19:21;2.33;;;1.10;;
2299;SDS011;1158;48.750;9.078;2023-11-19T01:21:49;1.90;;;0.90;;
2299;SDS011;1158;48.750;9.078;2023-11-19T01:24:16;3.20;;;1.27;;
2299;SDS011;1158;48.750;9.078;2023-11-19T01:26:43;1.70;;;1.00;;
2299;SDS011;1158;48.750;9.078;2023-11-19T01:29:11;2.20;;;1.30;;
2299;SDS011;1158;48.750;9.078;2023-11-19T01:31:41;2.70;;;1.23;;
2299;SDS011;1158;48.750;9.078;2023-11-19T01:34:07;2.77;;;1.40;;
2299;SDS011;1158;48.750;9.078;2023-11-19T01:36:34;1.60;;;1.03;;
2299;SDS011;1158;48.750;9.078;2023-11-19T01:39:04;1.90;;;1.10;;
2299;SDS011;1158;48.750;9.078;2023-11-19T01:41:33;2.23;;;1.30;;
2299;SDS011;1158;48.750;9.078;2023-11-19T01:44:00;1.83;;;1.07;;
2299;SDS011;1158;48.750;9.078;2023-11-19T01:46:27;1.63;;;1.07;;
2299;SDS011;1158;48.750;9.078;2023-11-19T01:48:56;1.80;;;0.93;;
2299;SDS011;1158;48.750;9.078;2023-11-19T01:51:23;1.93;;;1.07;;
2299;SDS011;1158;48.750;9.078;2023-11-19T01:53:50;2.00;;;1.10;;
2299;SDS011;1158;48.750;9.078;2023-11-19T01:56:17;2.23;;;0.90;;
2299;SDS011;1158;48.750;9.078;2023-11-19T01:58:44;2.07;;;1.10;;
2299;SDS011;1158;48.750;9.078;2023-11-19T02:01:12;3.50;;;1.17;;
2299;SDS011;1158;48.750;9.078;2023-11-19T02:03:40;2.60;;;1.13;;
2299;SDS011;1158;48.750;9.078;2023-11-19T02:06:08;2.00;;;1.00;;
2299;SDS011;1158;48.750;9.078;2023-11-19T02:08:36;1.60;;;1.00;;
2299;SDS011;1158;48.750;9.078;2023-11-19T02:11:03;1.50;;;0.90;;
2299;SDS011;1158;48.750;9.078;2023-11-19T02:13:31;2.07;;;1.20;;
2299;SDS011;1158;48.750;9.078;2023-11-19T02:15:58;2.10;;;1.10;;
2299;SDS011;1158;48.750;9.078;2023-11-19T02:18:27;2.17;;;1.17;;
2299;SDS011;1158;48.750;9.078;2023-11-19T02:20:54;1.90;;;1.20;;
2299;SDS011;1158;48.750;9.078;2023-11-19T02:23:23;1.90;;;0.90;;
2299;SDS011;1158;48.750;9.078;2023-11-19T02:25:55;1.80;;;1.00;;
2299;SDS011;1158;48.750;9.078;2023-11-19T02:28:29;2.20;;;1.20;;
2299;SDS011;1158;48.750;9.078;2023-11-19T02:30:57;2.10;;;0.97;;
2299;SDS011;1158;48.750;9.078;2023-11-19T02:33:24;2.00;;;0.90;;
2299;SDS011;1158;48.750;9.078;2023-11-19T02:35:51;1.53;;;0.90;;
2299;SDS011;1158;48.750;9.078;2023-11-19T02:38:18;1.90;;;0.90;;
2299;SDS011;1158;48.750;9.078;2023-11-19T02:40:46;2.67;;;0.90;;
2299;SDS011;1158;48.750;9.078;2023-11-19T02:43:14;1.50;;;0.90;;
2299;SDS011;1158;48.750;9.078;2023-11-19T02:45:42;2.67;;;1.20;;
2299;SDS011;1158;48.750;9.078;2023-11-19T02:48:10;2.33;;;1.00;;
2299;SDS011;1158;48.750;9.078;2023-11-19T02:50:37;2.33;;;0.80;;
2299;SDS011;1158;48.750;9.078;2023-11-19T02:53:04;1.50;;;0.80;;
2299;SDS011;1158;48.750;9.078;2023-11-19T02:55:31;1.30;;;0.77;;
2299;SDS011;1158;48.750;9.078;2023-11-19T02:58:02;1.80;;;0.90;;
2299;SDS011;1158;48.750;9.078;2023-11-19T03:00:34;1.37;;;0.70;;
2299;SDS011;1158;48.750;9.078;2023-11-19T03:03:08;1.40;;;0.70;;
2299;SDS011;1158;48.750;9.078;2023-11-19T03:05:45;1.40;;;0.80;;
2299;SDS011;1158;48.750;9.078;2023-11-19T03:08:12;1.60;;;0.80;;
2299;SDS011;1158;48.750;9.078;2023-11-19T03:10:39;1.57;;;0.73;;
2299;SDS011;1158;48.750;9.078;2023-11-19T03:13:07;1.40;;;0.80;;
2299;SDS011;1158;48.750;9.078;2023-11-19T03:15:39;1.93;;;0.80;;
2299;SDS011;1158;48.750;9.078;2023-11-19T03:18:06;1.50;;;0.70;;
2299;SDS011;1158;48.750;9.078;2023-11-19T03:20:34;1.50;;;0.97;;
2299;SDS011;1158;48.750;9.078;2023-11-19T03:23:00;1.80;;;0.90;;
2299;SDS011;1158;48.750;9.078;2023-11-19T03:25:27;1.40;;;0.70;;
2299;SDS011;1158;48.750;9.078;2023-11-19T03:27:58;1.70;;;0.70;;
2299;SDS011;1158;48.750;9.078;2023-11-19T03:30:25;1.83;;;0.80;;
2299;SDS011;1158;48.750;9.078;2023-11-19T03:32:53;2.00;;;0.80;;
2299;SDS011;1158;48.750;9.078;2023-11-19T03:35:20;1.20;;;0.60;;
2299;SDS011;1158;48.750;9.078;2023-11-19T03:37:48;1.30;;;0.70;;
2299;SDS011;1158;48.750;9.078;2023-11-19T03:40:14;1.57;;;0.80;;
2299;SDS011;1158;48.750;9.078;2023-11-19T03:42:41;1.57;;;0.70;;
2299;SDS011;1158;48.750;9.078;2023-11-19T03:45:09;1.60;;;0.80;;
2299;SDS011;1158;48.750;9.078;2023-11-19T03:47:37;4.50;;;0.90;;
2299;SDS011;1158;48.750;9.078;2023-11-19T03:50:04;2.53;;;0.80;;
2299;SDS011;1158;48.750;9.078;2023-11-19T03:52:32;2.40;;;0.60;;
2299;SDS011;1158;48.750;9.078;2023-11-19T03:55:00;1.77;;;0.70;;
2299;SDS011;1158;48.750;9.078;2023-11-19T03:57:28;1.93;;;0.67;;
2299;SDS011;1158;48.750;9.078;2023-11-19T03:59:54;2.50;;;0.70;;
2299;SDS011;1158;48.750;9.078;2023-11-19T04:02:24;1.37;;;0.60;;
2299;SDS011;1158;48.750;9.078;2023-11-19T04:04:53;1.40;;;0.70;;
2299;SDS011;1158;48.750;9.078;2023-11-19T04:07:20;5.00;;;0.77;;
2299;SDS011;1158;48.750;9.078;2023-11-19T04:09:47;2.90;;;0.80;;
2299;SDS011;1158;48.750;9.078;2023-11-19T04:12:15;1.30;;;0.70;;
2299;SDS011;1158;48.750;9.078;2023-11-19T04:14:42;1.90;;;0.70;;
2299;SDS011;1158;48.750;9.078;2023-11-19T04:17:09;1.53;;;0.70;;
2299;SDS011;1158;48.750;9.078;2023-11-19T04:19:35;1.10;;;0.60;;
2299;SDS011;1158;48.750;9.078;2023-11-19T04:22:02;1.40;;;0.60;;
2299;SDS011;1158;48.750;9.078;2023-11-19T04:24:29;1.30;;;0.70;;
2299;SDS011;1158;48.750;9.078;2023-11-19T04:26:56;3.53;;;0.70;;
2299;SDS011;1158;48.750;9.078;2023-11-19T04:29:24;1.30;;;0.70;;
2299;SDS011;1158;48.750;9.078;2023-11-19T04:31:51;1.30;;;0.60;;
2299;SDS011;1158;48.750;9.078;2023-11-19T04:34:18;1.37;;;0.60;;
2299;SDS011;1158;48.750;9.078;2023-11-19T04:36:50;1.43;;;0.70;;
2299;SDS011;1158;48.750;9.078;2023-11-19T04:39:20;1.20;;;0.70;;
2299;SDS011;1158;48.750;9.078;2023-11-19T04:41:47;3.83;;;0.90;;
2299;SDS011;1158;48.750;9.078;2023-11-19T04:44:15;1.50;;;0.80;;
2299;SDS011;1158;48.750;9.078;2023-11-19T04:46:44;1.50;;;0.70;;
2299;SDS011;1158;48.750;9.078;2023-11-19T04:49:11;1.30;;;0.70;;
2299;SDS011;1158;48.750;9.078;2023-11-19T04:51:39;1.10;;;0.50;;
2299;SDS011;1158;48.750;9.078;2023-11-19T04:54:06;3.10;;;0.70;;
2299;SDS011;1158;48.750;9.078;2023-11-19T04:56:34;1.30;;;0.60;;
2299;SDS011;1158;48.750;9.078;2023-11-19T04:59:01;1.40;;;0.70;;
2299;SDS011;1158;48.750;9.078;2023-11-19T05:01:28;1.37;;;0.67;;
2299;SDS011;1158;48.750;9.078;2023-11-19T05:03:56;1.40;;;0.70;;
2299;SDS011;1158;48.750;9.078;2023-11-19T05:06:25;1.20;;;0.53;;
2299;SDS011;1158;48.750;9.078;2023-11-19T05:08:53;1.40;;;0.70;;
2299;SDS011;1158;48.750;9.078;2023-11-19T05:11:20;1.13;;;0.60;;
2299;SDS011;1158;48.750;9.078;2023-11-19T05:13:46;1.40;;;0.60;;
2299;SDS011;1158;48.750;9.078;2023-11-19T05:16:13;1.33;;;0.67;;
2299;SDS011;1158;48.750;9.078;2023-11-19T05:18:40;1.43;;;0.70;;
2299;SDS011;1158;48.750;9.078;2023-11-19T05:21:08;1.20;;;0.60;;
2299;SDS011;1158;48.750;9.078;2023-11-19T05:23:35;1.70;;;0.60;;
2299;SDS011;1158;48.750;9.078;2023-11-19T05:26:01;1.60;;;0.70;;
2299;SDS011;1158;48.750;9.078;2023-11-19T05:28:28;1.20;;;0.60;;
2299;SDS011;1158;48.750;9.078;2023-11-19T05:30:55;3.10;;;0.80;;
2299;SDS011;1158;48.750;9.078;2023-11-19T05:33:22;1.47;;;0.80;;
2299;SDS011;1158;48.750;9.078;2023-11-19T05:35:48;1.50;;;0.70;;
2299;SDS011;1158;48.750;9.078;2023-11-19T05:38:16;2.17;;;0.70;;
2299;SDS011;1158;48.750;9.078;2023-11-19T05:40:43;2.70;;;0.77;;
2299;SDS011;1158;48.750;9.078;2023-11-19T05:43:10;1.10;;;0.60;;
2299;SDS011;1158;48.750;9.078;2023-11-19T05:45:37;1.20;;;0.60;;
2299;SDS011;1158;48.750;9.078;2023-11-19T05:48:03;1.70;;;0.70;;
2299;SDS011;1158;48.750;9.078;2023-11-19T05:50:30;1.33;;;0.70;;
2299;SDS011;1158;48.750;9.078;2023-11-19T05:52:57;1.50;;;0.80;;
2299;SDS011;1158;48.750;9.078;2023-11-19T05:55:25;1.37;;;0.70;;
2299;SDS011;1158;48.750;9.078;2023-11-19T05:57:53;1.47;;;0.70;;
2299;SDS011;1158;48.750;9.078;2023-11-19T06:00:19;1.30;;;0.70;;
2299;SDS011;1158;48.750;9.078;2023-11-19T06:02:46;1.43;;;0.60;;
2299;SDS011;1158;48.750;9.078;2023-11-19T06:05:13;1.30;;;0.60;;
2299;SDS011;1158;48.750;9.078;2023-11-19T06:07:40;1.30;;;0.73;;
2299;SDS011;1158;48.750;9.078;2023-11-19T06:10:07;1.90;;;0.70;;
2299;SDS011;1158;48.750;9.078;2023-11-19T06:12:36;1.73;;;0.90;;
2299;SDS011;1158;48.750;9.078;2023-11-19T06:15:06;1.57;;;0.90;;
2299;SDS011;1158;48.750;9.078;2023-11-19T06:17:34;1.30;;;0.70;;
2299;SDS011;1158;48.750;9.078;2023-11-19T06:20:00;3.10;;;1.83;;
2299;SDS011;1158;48.750;9.078;2023-11-19T06:22:29;1.73;;;0.80;;
2299;SDS011;1158;48.750;9.078;2023-11-19T06:24:56;1.27;;;0.70;;
2299;SDS011;1158;48.750;9.078;2023-11-19T06:27:25;2.70;;;0.77;;
2299;SDS011;1158;48.750;9.078;2023-11-19T06:29:53;7.73;;;0.80;;
2299;SDS011;1158;48.750;9.078;2023-11-19T06:32:19;1.47;;;0.77;;
2299;SDS011;1158;48.750;9.078;2023-11-19T06:34:47;1.30;;;0.63;;
2299;SDS011;1158;48.750;9.078;2023-11-19T06:37:13;1.20;;;0.60;;
2299;SDS011;1158;48.750;9.078;2023-11-19T06:39:40;1.33;;;0.70;;
2299;SDS011;1158;48.750;9.078;2023-11-19T06:42:07;1.40;;;0.73;;
2299;SDS011;1158;48.750;9.078;2023-11-19T06:44:33;1.30;;;0.70;;
2299;SDS011;1158;48.750;9.078;2023-11-19T06:47:02;2.73;;;0.70;;
2299;SDS011;1158;48.750;9.078;2023-11-19T06:49:29;3.70;;;0.90;;
2299;SDS011;1158;48.750;9.078;2023-11-19T06:51:55;1.20;;;0.60;;
2299;SDS011;1158;48.750;9.078;2023-11-19T06:54:22;2.93;;;0.80;;
2299;SDS011;1158;48.750;9.078;2023-11-19T06:56:49;1.77;;;0.80;;
2299;SDS011;1158;48.750;9.078;2023-11-19T06:59:15;1.60;;;0.73;;
2299;SDS011;1158;48.750;9.078;2023-11-19T07:01:42;1.87;;;0.80;;
2299;SDS011;1158;48.750;9.078;2023-11-19T07:04:11;2.30;;;0.83;;
2299;SDS011;1158;48.750;9.078;2023-11-19T07:06:38;1.87;;;0.60;;
2299;SDS011;1158;48.750;9.078;2023-11-19T07:09:06;1.40;;;0.80;;
2299;SDS011;1158;48.750;9.078;2023-11-19T07:11:35;1.57;;;0.90;;
2299;SDS011;1158;48.750;9.078;2023-11-19T07:14:03;1.50;;;0.80;;
2299;SDS011;1158;48.750;9.078;2023-11-19T07:16:31;2.47;;;0.80;;
2299;SDS011;1158;48.750;9.078;2023-11-19T07:18:58;1.30;;;0.70;;
2299;SDS011;1158;48.750;9.078;2023-11-19T07:21:26;1.67;;;0.80;;
2299;SDS011;1158;48.750;9.078;2023-11-19T07:23:53;1.70;;;1.13;;
2299;SDS011;1158;48.750;9.078;2023-11-19T07:26:20;1.40;;;0.70;;
2299;SDS011;1158;48.750;9.078;2023-11-19T07:28:48;1.50;;;0.90;;
2299;SDS011;1158;48.750;9.078;2023-11-19T07:31:14;1.60;;;0.93;;
2299;SDS011;1158;48.750;9.078;2023-11-19T07:33:41;1.50;;;0.80;;
2299;SDS011;1158;48.750;9.078;2023-11-19T07:36:09;1.53;;;1.00;;
2299;SDS011;1158;48.750;9.078;2023-11-19T07:38:37;3.73;;;0.87;;
2299;SDS011;1158;48.750;9.078;2023-11-19T07:41:04;1.40;;;0.70;;
2299;SDS011;1158;48.750;9.078;2023-11-19T07:43:34;1.57;;;0.80;;
2299;SDS011;1158;48.750;9.078;2023-11-19T07:46:00;2.00;;;0.90;;
2299;SDS011;1158;48.750;9.078;2023-11-19T07:48:28;1.10;;;0.60;;
2299;SDS011;1158;48.750;9.078;2023-11-19T07:50:55;1.40;;;0.80;;
2299;SDS011;1158;48.750;9.078;2023-11-19T07:53:22;1.50;;;0.80;;
2299;SDS011;1158;48.750;9.078;2023-11-19T07:55:50;1.60;;;0.90;;
2299;SDS011;1158;48.750;9.078;2023-11-19T07:58:17;1.73;;;0.83;;
2299;SDS011;1158;48.750;9.078;2023-11-19T08:00:43;1.23;;;0.67;;
2299;SDS011;1158;48.750;9.078;2023-11-19T08:03:10;1.80;;;0.90;;
2299;SDS011;1158;48.750;9.078;2023-11-19T08:05:37;1.70;;;0.77;;
2299;SDS011;1158;48.750;9.078;2023-11-19T08:08:04;1.47;;;0.77;;
2299;SDS011;1158;48.750;9.078;2023-11-19T08:10:32;2.67;;;0.77;;
2299;SDS011;1158;48.750;9.078;2023-11-19T08:13:00;1.50;;;0.80;;
2299;SDS011;1158;48.750;9.078;2023-11-19T08:15:27;1.50;;;0.70;;
2299;SDS011;1158;48.750;9.078;2023-11-19T08:17:54;1.77;;;1.00;;
2299;SDS011;1158;48.750;9.078;2023-11-19T08:20:21;4.73;;;0.83;;
2299;SDS011;1158;48.750;9.078;2023-11-19T08:22:48;1.40;;;0.70;;
2299;SDS011;1158;48.750;9.078;2023-11-19T08:25:15;1.60;;;0.80;;
2299;SDS011;1158;48.750;9.078;2023-11-19T08:27:42;1.33;;;0.63;;
2299;SDS011;1158;48.750;9.078;2023-11-19T08:30:10;1.70;;;0.80;;
2299;SDS011;1158;48.750;9.078;2023-11-19T08:32:37;1.57;;;0.90;;
2299;SDS011;1158;48.750;9.078;2023-11-19T08:35:04;3.90;;;1.07;;
2299;SDS011;1158;48.750;9.078;2023-11-19T08:37:31;1.40;;;0.77;;
2299;SDS011;1158;48.750;9.078;2023-11-19T08:39:58;1.33;;;0.70;;
2299;SDS011;1158;48.750;9.078;2023-11-19T08:42:26;1.70;;;0.70;;
2299;SDS011;1158;48.750;9.078;2023-11-19T08:44:52;1.60;;;0.90;;
2299;SDS011;1158;48.750;9.078;2023-11-19T08:47:21;1.37;;;0.80;;
2299;SDS011;1158;48.750;9.078;2023-11-19T08:49:50;1.60;;;0.70;;
2299;SDS011;1158;48.750;9.078;2023-11-19T08:52:17;1.80;;;0.80;;
2299;SDS011;1158;48.750;9.078;2023-11-19T08:54:43;1.77;;;1.00;;
2299;SDS011;1158;48.750;9.078;2023-11-19T08:57:10;2.70;;;1.10;;
2299;SDS011;1158;48.750;9.078;2023-11-19T08:59:37;1.30;;;0.70;;
2299;SDS011;1158;48.750;9.078;2023-11-19T09:02:04;2.60;;;0.90;;
2299;SDS011;1158;48.750;9.078;2023-11-19T09:04:32;1.37;;;0.80;;
2299;SDS011;1158;48.750;9.078;2023-11-19T09:06:59;2.13;;;0.93;;
2299;SDS011;1158;48.750;9.078;2023-11-19T09:09:26;1.63;;;0.70;;
2299;SDS011;1158;48.750;9.078;2023-11-19T09:11:52;3.90;;;0.90;;
2299;SDS011;1158;48.750;9.078;2023-11-19T09:14:19;1.90;;;1.00;;
2299;SDS011;1158;48.750;9.078;2023-11-19T09:16:49;2.37;;;0.80;;
2299;SDS011;1158;48.750;9.078;2023-11-19T09:19:15;2.40;;;1.00;;
2299;SDS011;1158;48.750;9.078;2023-11-19T09:21:44;1.87;;;0.70;;
2299;SDS011;1158;48.750;9.078;2023-11-19T09:24:10;2.33;;;1.20;;
2299;SDS011;1158;48.750;9.078;2023-11-19T09:26:37;1.70;;;0.80;;
2299;SDS011;1158;48.750;9.078;2023-11-19T09:29:06;2.43;;;0.83;;
2299;SDS011;1158;48.750;9.078;2023-11-19T09:31:33;1.70;;;0.77;;
2299;SDS011;1158;48.750;9.078;2023-11-19T09:34:00;1.87;;;1.00;;
2299;SDS011;1158;48.750;9.078;2023-11-19T09:36:27;2.37;;;0.80;;
2299;SDS011;1158;48.750;9.078;2023-11-19T09:38:55;2.60;;;0.83;;
2299;SDS011;1158;48.750;9.078;2023-11-19T09:41:21;3.77;;;0.80;;
2299;SDS011;1158;48.750;9.078;2023-11-19T09:43:50;2.50;;;1.20;;
2299;SDS011;1158;48.750;9.078;2023-11-19T09:46:17;2.47;;;1.33;;
2299;SDS011;1158;48.750;9.078;2023-11-19T09:48:45;1.70;;;0.83;;
2299;SDS011;1158;48.750;9.078;2023-11-19T09:51:13;1.70;;;0.90;;
2299;SDS011;1158;48.750;9.078;2023-11-19T09:53:40;1.60;;;0.80;;
2299;SDS011;1158;48.750;9.078;2023-11-19T09:56:08;4.27;;;1.00;;
2299;SDS011;1158;48.750;9.078;2023-11-19T09:58:35;1.70;;;0.90;;
2299;SDS011;1158;48.750;9.078;2023-11-19T10:01:02;5.60;;;1.37;;
2299;SDS011;1158;48.750;9.078;2023-11-19T10:03:32;1.90;;;0.90;;
2299;SDS011;1158;48.750;9.078;2023-11-19T10:05:59;2.80;;;1.07;;
2299;SDS011;1158;48.750;9.078;2023-11-19T10:08:28;3.03;;;1.10;;
2299;SDS011;1158;48.750;9.078;2023-11-19T10:10:55;2.90;;;1.33;;
2299;SDS011;1158;48.750;9.078;2023-11-19T10:13:27;2.70;;;1.00;;
2299;SDS011;1158;48.750;9.078;2023-11-19T10:15:55;4.33;;;0.93;;
2299;SDS011;1158;48.750;9.078;2023-11-19T10:18:23;2.20;;;0.80;;
2299;SDS011;1158;48.750;9.078;2023-11-19T10:20:51;1.80;;;1.00;;
2299;SDS011;1158;48.750;9.078;2023-11-19T10:23:18;1.73;;;0.83;;
2299;SDS011;1158;48.750;9.078;2023-11-19T10:25:45;3.10;;;0.90;;
2299;SDS011;1158;48.750;9.078;2023-11-19T10:28:12;6.00;;;1.03;;
2299;SDS011;1158;48.750;9.078;2023-11-19T10:30:43;5.57;;;0.70;;
2299;SDS011;1158;48.750;9.078;2023-11-19T10:33:10;2.30;;;1.10;;
2299;SDS011;1158;48.750;9.078;2023-11-19T10:35:50;1.53;;;0.83;;
2299;SDS011;1158;48.750;9.078;2023-11-19T10:38:18;3.53;;;0.90;;
2299;SDS011;1158;48.750;9.078;2023-11-19T10:40:45;4.47;;;1.10;;
2299;SDS011;1158;48.750;9.078;2023-11-19T10:43:12;2.23;;;0.77;;
2299;SDS011;1158;48.750;9.078;2023-11-19T10:45:38;2.77;;;1.07;;
2299;SDS011;1158;48.750;9.078;2023-11-19T10:48:07;1.60;;;1.00;;
2299;SDS011;1158;48.750;9.078;2023-11-19T10:50:35;1.47;;;0.70;;
2299;SDS011;1158;48.750;9.078;2023-11-19T10:53:03;3.63;;;0.70;;
2299;SDS011;1158;48.750;9.078;2023-11-19T10:55:31;1.60;;;0.80;;
2299;SDS011;1158;48.750;9.078;2023-11-19T10:58:00;1.70;;;0.90;;
2299;SDS011;1158;48.750;9.078;2023-11-19T11:00:28;1.60;;;0.87;;
2299;SDS011;1158;48.750;9.078;2023-11-19T11:02:59;1.30;;;0.70;;
2299;SDS011;1158;48.750;9.078;2023-11-19T11:05:28;3.00;;;0.90;;
2299;SDS011;1158;48.750;9.078;2023-11-19T11:07:58;1.70;;;0.80;;
2299;SDS011;1158;48.750;9.078;2023-11-19T11:10:26;3.40;;;0.90;;
2299;SDS011;1158;48.750;9.078;2023-11-19T11:12:54;4.47;;;0.93;;
2299;SDS011;1158;48.750;9.078;2023-11-19T11:15:25;3.63;;;1.03;;
2299;SDS011;1158;48.750;9.078;2023-11-19T11:17:54;1.50;;;0.73;;
2299;SDS011;1158;48.750;9.078;2023-11-19T11:20:25;2.23;;;1.10;;
2299;SDS011;1158;48.750;9.078;2023-11-19T11:22:56;3.50;;;2.13;;
2299;SDS011;1158;48.750;9.078;2023-11-19T11:25:33;7.47;;;1.53;;
2299;SDS011;1158;48.750;9.078;2023-11-19T11:28:13;3.17;;;1.13;;
2299;SDS011;1158;48.750;9.078;2023-11-19T11:31:08;2.13;;;0.80;;
2299;SDS011;1158;48.750;9.078;2023-11-19T11:33:48;2.77;;;0.80;;
2299;SDS011;1158;48.750;9.078;2023-11-19T11:36:30;3.37;;;0.97;;
2299;SDS011;1158;48.750;9.078;2023-11-19T11:39:06;4.40;;;0.93;;
2299;SDS011;1158;48.750;9.078;2023-11-19T11:41:34;3.63;;;1.50;;
2299;SDS011;1158;48.750;9.078;2023-11-19T11:44:01;3.20;;;1.00;;
2299;SDS011;1158;48.750;9.078;2023-11-19T11:49:25;1.87;;;0.93;;
2299;SDS011;1158;48.750;9.078;2023-11-19T11:51:59;2.53;;;0.93;;
2299;SDS011;1158;48.750;9.078;2023-11-19T11:54:29;1.83;;;0.87;;
2299;SDS011;1158;48.750;9.078;2023-11-19T11:57:06;3.00;;;1.00;;
2299;SDS011;1158;48.750;9.078;2023-11-19T11:59:43;5.93;;;1.00;;
2299;SDS011;1158;48.750;9.078;2023-11-19T12:02:13;1.67;;;0.80;;
2299;SDS011;1158;48.750;9.078;2023-11-19T12:04:42;4.00;;;1.10;;
2299;SDS011;1158;48.750;9.078;2023-11-19T12:07:12;2.67;;;0.90;;
2299;SDS011;1158;48.750;9.078;2023-11-19T12:09:42;2.90;;;0.80;;
2299;SDS011;1158;48.750;9.078;2023-11-19T12:12:23;3.40;;;0.80;;
2299;SDS011;1158;48.750;9.078;2023-11-19T12:15:03;1.53;;;0.83;;
2299;SDS011;1158;48.750;9.078;2023-11-19T12:17:41;3.00;;;0.93;;
2299;SDS011;1158;48.750;9.078;2023-11-19T12:20:18;3.23;;;1.03;;
2299;SDS011;1158;48.750;9.078;2023-11-19T12:22:46;3.13;;;1.10;;
2299;SDS011;1158;48.750;9.078;2023-11-19T12:25:16;3.30;;;1.10;;
2299;SDS011;1158;48.750;9.078;2023-11-19T12:27:45;2.97;;;1.20;;
2299;SDS011;1158;48.750;9.078;2023-11-19T12:30:17;2.67;;;0.80;;
2299;SDS011;1158;48.750;9.078;2023-11-19T12:32:47;2.30;;;0.90;;
2299;SDS011;1158;48.750;9.078;2023-11-19T12:35:14;2.63;;;0.80;;
2299;SDS011;1158;48.750;9.078;2023-11-19T12:37:41;2.53;;;1.10;;
2299;SDS011;1158;48.750;9.078;2023-11-19T12:40:12;3.37;;;1.27;;
2299;SDS011;1158;48.750;9.078;2023-11-19T12:42:41;1.93;;;0.80;;
2299;SDS011;1158;48.750;9.078;2023-11-19T12:45:08;2.43;;;1.00;;
2299;SDS011;1158;48.750;9.078;2023-11-19T12:47:37;2.30;;;1.00;;
2299;SDS011;1158;48.750;9.078;2023-11-19T12:50:04;1.80;;;0.70;;
2299;SDS011;1158;48.750;9.078;2023-11-19T12:52:33;3.07;;;0.90;;
2299;SDS011;1158;48.750;9.078;2023-11-19T12:54:59;2.63;;;1.03;;
2299;SDS011;1158;48.750;9.078;2023-11-19T12:57:36;2.27;;;1.10;;
2299;SDS011;1158;48.750;9.078;2023-11-19T13:00:06;1.43;;;0.80;;
2299;SDS011;1158;48.750;9.078;2023-11-19T13:02:45;5.40;;;1.00;;
2299;SDS011;1158;48.750;9.078;2023-11-19T13:05:20;2.13;;;0.80;;
2299;SDS011;1158;48.750;9.078;2023-11-19T13:07:57;1.90;;;0.93;;
2299;SDS011;1158;48.750;9.078;2023-11-19T13:10:25;2.93;;;0.80;;
2299;SDS011;1158;48.750;9.078;2023-11-19T13:13:01;5.57;;;0.97;;
2299;SDS011;1158;48.750;9.078;2023-11-19T13:15:31;3.53;;;1.30;;
2299;SDS011;1158;48.750;9.078;2023-11-19T13:17:58;2.03;;;0.90;;
2299;SDS011;1158;48.750;9.078;2023-11-19T13:20:25;2.77;;;0.80;;
2299;SDS011;1158;48.750;9.078;2023-11-19T13:22:56;1.70;;;0.70;;
2299;SDS011;1158;48.750;9.078;2023-11-19T13:25:23;2.07;;;0.87;;
2299;SDS011;1158;48.750;9.078;2023-11-19T13:27:50;2.80;;;0.90;;
2299;SDS011;1158;48.750;9.078;2023-11-19T13:30:16;10.13;;;2.30;;
2299;SDS011;1158;48.750;9.078;2023-11-19T13:32:44;1.40;;;0.70;;
2299;SDS011;1158;48.750;9.078;2023-11-19T13:35:11;1.77;;;0.80;;
2299;SDS011;1158;48.750;9.078;2023-11-19T13:37:38;2.27;;;0.90;;
2299;SDS011;1158;48.750;9.078;2023-11-19T13:40:06;1.40;;;0.70;;
2299;SDS011;1158;48.750;9.078;2023-11-19T13:42:34;2.33;;;1.00;;
2299;SDS011;1158;48.750;9.078;2023-11-19T13:45:02;1.90;;;0.97;;
2299;SDS011;1158;48.750;9.078;2023-11-19T13:47:29;2.30;;;0.97;;
2299;SDS011;1158;48.750;9.078;2023-11-19T13:49:57;1.70;;;0.80;;
2299;SDS011;1158;48.750;9.078;2023-11-19T13:52:24;1.67;;;0.83;;
2299;SDS011;1158;48.750;9.078;2023-11-19T13:54:50;4.80;;;1.13;;
2299;SDS011;1158;48.750;9.078;2023-11-19T13:57:17;2.80;;;1.20;;
2299;SDS011;1158;48.750;9.078;2023-11-19T13:59:44;2.90;;;0.90;;
2299;SDS011;1158;48.750;9.078;2023-11-19T14:02:10;2.63;;;0.90;;
2299;SDS011;1158;48.750;9.078;2023-11-19T14:04:37;1.50;;;0.70;;
2299;SDS011;1158;48.750;9.078;2023-11-19T14:07:05;2.20;;;0.90;;
2299;SDS011;1158;48.750;9.078;2023-11-19T14:09:32;1.70;;;0.90;;
2299;SDS011;1158;48.750;9.078;2023-11-19T14:11:58;2.90;;;1.17;;
2299;SDS011;1158;48.750;9.078;2023-11-19T14:14:25;3.00;;;1.07;;
2299;SDS011;1158;48.750;9.078;2023-11-19T14:16:52;1.37;;;0.70;;
2299;SDS011;1158;48.750;9.078;2023-11-19T14:19:18;5.40;;;1.37;;
2299;SDS011;1158;48.750;9.078;2023-11-19T14:21:45;2.03;;;1.00;;
2299;SDS011;1158;48.750;9.078;2023-11-19T14:24:13;2.10;;;0.90;;
2299;SDS011;1158;48.750;9.078;2023-11-19T14:26:40;2.03;;;0.90;;
2299;SDS011;1158;48.750;9.078;2023-11-19T14:29:06;1.83;;;0.90;;
2299;SDS011;1158;48.750;9.078;2023-11-19T14:31:32;4.40;;;0.90;;
2299;SDS011;1158;48.750;9.078;2023-11-19T14:34:00;1.57;;;0.90;;
2299;SDS011;1158;48.750;9.078;2023-11-19T14:36:27;1.37;;;0.80;;
2299;SDS011;1158;48.750;9.078;2023-11-19T14:38:54;2.70;;;1.30;;
2299;SDS011;1158;48.750;9.078;2023-11-19T14:41:22;2.10;;;1.10;;
2299;SDS011;1158;48.750;9.078;2023-11-19T14:43:48;1.97;;;1.10;;
2299;SDS011;1158;48.750;9.078;2023-11-19T14:46:15;1.57;;;0.93;;
2299;SDS011;1158;48.750;9.078;2023-11-19T14:48:42;4.60;;;1.30;;
2299;SDS011;1158;48.750;9.078;2023-11-19T14:51:08;2.10;;;1.00;;
2299;SDS011;1158;48.750;9.078;2023-11-19T14:53:35;2.07;;;1.10;;
2299;SDS011;1158;48.750;9.078;2023-11-19T14:56:02;1.40;;;0.77;;
2299;SDS011;1158;48.750;9.078;2023-11-19T14:58:31;3.70;;;1.30;;
2299;SDS011;1158;48.750;9.078;2023-11-19T15:00:57;3.73;;;1.10;;
2299;SDS011;1158;48.750;9.078;2023-11-19T15:03:24;2.30;;;1.13;;
2299;SDS011;1158;48.750;9.078;2023-11-19T15:05:51;1.97;;;1.00;;
2299;SDS011;1158;48.750;9.078;2023-11-19T15:08:17;3.13;;;1.30;;
2299;SDS011;1158;48.750;9.078;2023-11-19T15:10:44;4.73;;;1.37;;
2299;SDS011;1158;48.750;9.078;2023-11-19T15:13:11;3.27;;;1.80;;
2299;SDS011;1158;48.750;9.078;2023-11-19T15:15:39;2.00;;;1.10;;
2299;SDS011;1158;48.750;9.078;2023-11-19T15:18:07;2.90;;;1.13;;
2299;SDS011;1158;48.750;9.078;2023-11-19T15:20:34;4.90;;;1.10;;
2299;SDS011;1158;48.750;9.078;2023-11-19T15:23:01;3.13;;;1.40;;